createdAt,value
2023-01-10T00:01:54.002Z,4.10
2023-01-10T00:04:21.105Z,4.10
2023-01-10T00:06:48.102Z,4.10
2023-01-10T00:09:15.067Z,4.10
2023-01-10T00:12:00.689Z,4.10
2023-01-10T00:14:29.010Z,4.10
2023-01-10T00:16:56.523Z,4.10
2023-01-10T00:19:23.517Z,4.10
2023-01-10T00:21:50.484Z,4.10
2023-01-10T00:24:20.536Z,4.10
2023-01-10T00:26:50.938Z,4.10
2023-01-10T00:29:18.768Z,4.10
2023-01-10T00:31:45.774Z,4.10
2023-01-10T00:34:12.855Z,4.10
2023-01-10T00:36:39.896Z,4.10
2023-01-10T00:39:07.098Z,4.10
2023-01-10T00:41:52.908Z,4.10
2023-01-10T00:44:19.939Z,4.10
2023-01-10T00:46:46.933Z,4.10
2023-01-10T00:49:16.181Z,4.10
2023-01-10T00:51:43.514Z,4.10
2023-01-10T00:54:10.658Z,4.10
2023-01-10T00:56:37.633Z,4.10
2023-01-10T00:59:05.087Z,4.10
2023-01-10T01:01:32.226Z,4.10
2023-01-10T01:04:02.557Z,4.10
2023-01-10T01:06:29.635Z,4.10
2023-01-10T01:08:56.809Z,4.10
2023-01-10T01:11:23.826Z,4.10
2023-01-10T01:13:50.804Z,4.10
2023-01-10T01:16:17.959Z,4.10
2023-01-10T01:18:44.941Z,4.10
2023-01-10T01:21:11.981Z,4.10
2023-01-10T01:23:38.955Z,4.10
2023-01-10T01:26:06.631Z,4.10
2023-01-10T01:28:33.647Z,4.10
2023-01-10T01:31:06.101Z,4.10
2023-01-10T01:33:33.123Z,4.10
2023-01-10T01:36:00.112Z,4.00
2023-01-10T01:38:27.104Z,4.00
2023-01-10T01:40:54.083Z,4.00
2023-01-10T01:43:22.276Z,4.00
2023-01-10T01:45:49.339Z,4.00
2023-01-10T01:48:18.207Z,4.00
2023-01-10T01:51:07.553Z,4.10
2023-01-10T01:53:36.683Z,4.00
2023-01-10T01:56:05.300Z,4.00
2023-01-10T01:58:58.735Z,4.00
2023-01-10T02:01:25.808Z,4.00
2023-01-10T02:03:57.722Z,4.00
2023-01-10T02:06:24.803Z,4.00
2023-01-10T02:08:54.794Z,4.00
2023-01-10T02:11:21.827Z,4.00
2023-01-10T02:13:49.604Z,4.00
2023-01-10T02:16:16.808Z,4.00
2023-01-10T02:18:43.822Z,4.00
2023-01-10T02:21:13.803Z,4.00
2023-01-10T02:23:59.706Z,4.00
2023-01-10T02:26:34.403Z,4.00
2023-01-10T02:29:20.185Z,4.00
2023-01-10T02:32:09.333Z,4.00
2023-01-10T02:34:48.620Z,4.00
2023-01-10T02:37:18.600Z,4.00
2023-01-10T02:39:45.561Z,4.00
2023-01-10T02:42:13.920Z,4.00
2023-01-10T02:45:01.120Z,4.00
2023-01-10T02:47:34.533Z,4.00
2023-01-10T02:50:17.585Z,4.00
2023-01-10T02:52:44.759Z,4.00
2023-01-10T02:55:11.805Z,4.00
2023-01-10T02:57:44.902Z,3.90
2023-01-10T03:00:18.035Z,3.90
2023-01-10T03:03:02.067Z,3.90
2023-01-10T03:05:50.287Z,3.90
2023-01-10T03:08:28.128Z,4.00
2023-01-10T03:10:58.151Z,3.90
2023-01-10T03:13:33.274Z,3.90
2023-01-10T03:16:00.572Z,3.90
2023-01-10T03:18:36.297Z,3.90
2023-01-10T03:21:04.076Z,3.90
2023-01-10T03:23:31.837Z,3.90
2023-01-10T03:25:58.904Z,3.90
2023-01-10T03:28:33.883Z,3.90
2023-01-10T03:31:05.194Z,3.90
2023-01-10T03:33:32.725Z,3.90
2023-01-10T03:36:20.811Z,3.90
2023-01-10T03:38:50.634Z,3.90
2023-01-10T03:41:26.329Z,3.90
2023-01-10T03:44:35.445Z,3.90
2023-01-10T03:47:06.855Z,3.90
2023-01-10T03:49:34.062Z,3.90
2023-01-10T03:52:01.037Z,3.90
2023-01-10T03:54:28.042Z,3.90
2023-01-10T03:56:55.089Z,3.90
2023-01-10T03:59:24.761Z,3.90
2023-01-10T04:01:52.325Z,3.90
2023-01-10T04:04:19.438Z,4.00
2023-01-10T04:06:46.501Z,4.00
2023-01-10T04:09:13.575Z,4.00
2023-01-10T04:11:40.618Z,4.00
2023-01-10T04:14:07.614Z,4.00
2023-01-10T04:16:34.646Z,4.00
2023-01-10T04:19:01.651Z,4.00
2023-01-10T04:21:28.628Z,4.00
2023-01-10T04:23:55.598Z,4.00
2023-01-10T04:26:22.588Z,4.00
2023-01-10T04:28:49.841Z,4.00
2023-01-10T04:31:16.847Z,4.00
2023-01-10T04:33:43.819Z,4.00
2023-01-10T04:36:10.801Z,4.00
2023-01-10T04:38:37.786Z,4.00
2023-01-10T04:41:04.828Z,4.00
2023-01-10T04:43:32.074Z,4.00
2023-01-10T04:45:59.176Z,4.00
2023-01-10T04:48:27.030Z,4.00
2023-01-10T04:50:54.092Z,4.00
2023-01-10T04:53:21.130Z,4.00
2023-01-10T04:55:48.288Z,4.00
2023-01-10T04:58:15.248Z,4.00
2023-01-10T05:00:42.481Z,4.00
2023-01-10T05:03:09.517Z,4.00
2023-01-10T05:05:36.509Z,3.90
2023-01-10T05:08:03.629Z,4.00
2023-01-10T05:10:30.607Z,3.90
2023-01-10T05:12:57.613Z,3.90
2023-01-10T05:15:24.665Z,3.90
2023-01-10T05:17:57.166Z,3.90
2023-01-10T05:20:24.130Z,3.90
2023-01-10T05:22:51.130Z,3.90
2023-01-10T05:25:18.149Z,3.90
2023-01-10T05:27:45.127Z,3.90
2023-01-10T05:30:12.422Z,3.80
2023-01-10T05:32:39.503Z,3.90
2023-01-10T05:35:06.633Z,3.90
2023-01-10T05:37:33.617Z,3.90
2023-01-10T05:40:00.567Z,3.90
2023-01-10T05:42:27.524Z,3.90
2023-01-10T05:44:54.708Z,3.90
2023-01-10T05:47:21.897Z,3.90
2023-01-10T05:49:48.876Z,3.90
2023-01-10T05:52:16.070Z,3.80
2023-01-10T05:54:43.045Z,3.80
2023-01-10T05:57:10.065Z,3.90
2023-01-10T05:59:37.044Z,3.90
2023-01-10T06:02:04.029Z,3.90
2023-01-10T06:04:31.011Z,3.80
2023-01-10T06:06:57.965Z,3.80
2023-01-10T06:09:24.951Z,3.80
2023-01-10T06:11:51.947Z,3.80
2023-01-10T06:14:19.488Z,3.80
2023-01-10T06:16:47.114Z,3.80
2023-01-10T06:19:14.172Z,3.80
2023-01-10T06:21:41.189Z,3.90
2023-01-10T06:24:08.397Z,3.80
2023-01-10T06:26:35.378Z,3.80
2023-01-10T06:29:02.415Z,3.80
2023-01-10T06:31:29.646Z,3.90
2023-01-10T06:33:56.648Z,3.90
2023-01-10T06:36:23.611Z,3.90
2023-01-10T06:38:50.662Z,3.80
2023-01-10T06:41:17.645Z,3.90
2023-01-10T06:43:45.566Z,3.90
2023-01-10T06:46:16.590Z,3.90
2023-01-10T06:48:44.899Z,3.90
2023-01-10T06:51:12.559Z,3.90
2023-01-10T06:53:39.552Z,3.80
2023-01-10T06:56:06.817Z,3.90
2023-01-10T06:58:34.824Z,3.90
2023-01-10T07:01:01.893Z,3.90
2023-01-10T07:03:28.987Z,3.90
2023-01-10T07:05:56.022Z,3.90
2023-01-10T07:08:22.982Z,3.90
2023-01-10T07:10:50.252Z,3.90
2023-01-10T07:13:17.281Z,3.90
2023-01-10T07:15:44.324Z,3.80
2023-01-10T07:18:12.788Z,3.90
2023-01-10T07:20:39.980Z,3.90
2023-01-10T07:23:06.957Z,3.80
2023-01-10T07:25:33.936Z,3.80
2023-01-10T07:28:00.967Z,3.80
2023-01-10T07:30:27.938Z,3.80
2023-01-10T07:32:55.461Z,3.80
2023-01-10T07:35:23.008Z,3.80
2023-01-10T07:37:49.993Z,3.90
2023-01-10T07:40:17.171Z,3.80
2023-01-10T07:42:44.136Z,3.80
2023-01-10T07:45:11.236Z,3.80
2023-01-10T07:47:38.259Z,3.80
2023-01-10T07:50:05.461Z,3.80
2023-01-10T07:52:32.912Z,3.80
2023-01-10T07:54:59.878Z,3.80
2023-01-10T07:57:26.891Z,3.80
2023-01-10T07:59:53.984Z,3.80
2023-01-10T08:02:21.049Z,3.80
2023-01-10T08:04:48.136Z,3.90
2023-01-10T08:07:15.125Z,3.90
2023-01-10T08:09:42.099Z,3.80
2023-01-10T08:12:09.083Z,3.80
2023-01-10T08:14:36.144Z,3.80
2023-01-10T08:17:03.130Z,3.80
2023-01-10T08:19:30.202Z,3.90
2023-01-10T08:21:57.241Z,3.90
2023-01-10T08:24:24.222Z,3.90
2023-01-10T08:26:51.223Z,3.80
2023-01-10T08:29:18.205Z,3.80
2023-01-10T08:31:45.188Z,3.80
2023-01-10T08:34:12.800Z,3.80
2023-01-10T08:36:39.765Z,3.90
2023-01-10T08:39:06.837Z,3.90
2023-01-10T08:41:34.007Z,3.90
2023-01-10T08:44:01.043Z,3.90
2023-01-10T08:46:28.118Z,3.90
2023-01-10T08:48:55.224Z,4.00
2023-01-10T08:51:22.458Z,3.90
2023-01-10T08:53:49.534Z,3.90
2023-01-10T08:56:16.537Z,4.00
2023-01-10T08:58:43.817Z,4.00
2023-01-10T09:01:12.002Z,4.00
2023-01-10T09:03:40.053Z,4.00
2023-01-10T09:06:08.218Z,4.00
2023-01-10T09:08:35.616Z,4.00
2023-01-10T09:11:02.684Z,4.00
2023-01-10T09:13:29.885Z,4.00
2023-01-10T09:15:56.993Z,4.00
2023-01-10T09:18:24.163Z,4.00
2023-01-10T09:20:51.307Z,3.90
2023-01-10T09:23:20.032Z,3.80
2023-01-10T09:25:47.671Z,3.70
2023-01-10T09:28:15.021Z,3.70
2023-01-10T09:30:42.058Z,3.70
2023-01-10T09:33:09.136Z,3.70
2023-01-10T09:35:36.785Z,3.80
2023-01-10T09:38:03.963Z,3.80
2023-01-10T09:40:46.334Z,3.80
2023-01-10T09:43:26.211Z,3.90
2023-01-10T09:46:02.309Z,4.00
2023-01-10T09:48:49.733Z,4.10
2023-01-10T09:51:16.716Z,4.10
2023-01-10T09:53:43.733Z,4.10
2023-01-10T09:56:10.903Z,4.20
2023-01-10T09:58:38.478Z,4.20
2023-01-10T10:01:13.732Z,4.30
2023-01-10T10:03:59.941Z,4.30
2023-01-10T10:06:26.964Z,4.30
2023-01-10T10:08:54.091Z,4.40
2023-01-10T10:11:27.194Z,4.30
2023-01-10T10:13:55.255Z,4.30
2023-01-10T10:16:28.322Z,4.30
2023-01-10T10:18:59.531Z,4.30
2023-01-10T10:21:29.026Z,4.30
2023-01-10T10:24:18.072Z,4.40
2023-01-10T10:26:49.268Z,4.30
2023-01-10T10:29:16.246Z,4.40
2023-01-10T10:31:46.257Z,4.40
2023-01-10T10:34:16.252Z,4.50
2023-01-10T10:36:45.829Z,4.40
2023-01-10T10:39:13.798Z,4.50
2023-01-10T10:41:41.512Z,4.50
2023-01-10T10:44:20.726Z,4.50
2023-01-10T10:46:47.670Z,4.50
2023-01-10T10:49:18.703Z,4.50
2023-01-10T10:51:48.017Z,4.60
2023-01-10T10:54:16.407Z,4.60
2023-01-10T10:56:43.379Z,4.70
2023-01-10T10:59:10.969Z,4.70
2023-01-10T11:01:38.242Z,4.80
2023-01-10T11:04:08.946Z,4.80
2023-01-10T11:06:36.002Z,4.80
2023-01-10T11:09:04.083Z,4.80
2023-01-10T11:11:35.793Z,4.80
2023-01-10T11:14:06.763Z,4.80
2023-01-10T11:16:36.579Z,4.80
2023-01-10T11:19:22.595Z,4.80
2023-01-10T11:21:49.646Z,4.70
2023-01-10T11:24:42.995Z,4.70
2023-01-10T11:27:16.723Z,4.70
2023-01-10T11:29:44.477Z,4.70
2023-01-10T11:32:14.964Z,4.70
2023-01-10T11:34:42.993Z,4.70
2023-01-10T11:37:16.135Z,4.70
2023-01-10T11:39:43.346Z,4.70
2023-01-10T11:42:29.983Z,4.70
2023-01-10T11:45:15.857Z,4.70
2023-01-10T11:47:45.704Z,4.70
2023-01-10T11:50:15.289Z,4.70
2023-01-10T11:52:45.500Z,4.70
2023-01-10T11:55:17.307Z,4.70
2023-01-10T11:57:44.280Z,4.80
2023-01-10T12:00:11.581Z,4.70
2023-01-10T12:02:43.098Z,4.80
2023-01-10T12:05:10.823Z,4.80
2023-01-10T12:08:13.518Z,4.80
2023-01-10T12:10:40.494Z,4.80
2023-01-10T12:13:14.354Z,4.80
2023-01-10T12:15:41.457Z,4.80
2023-01-10T12:18:10.202Z,4.90
2023-01-10T12:20:41.868Z,4.90
2023-01-10T12:23:11.288Z,4.90
2023-01-10T12:25:39.770Z,4.90
2023-01-10T12:28:14.016Z,5.00
2023-01-10T12:30:46.656Z,5.10
2023-01-10T12:33:15.283Z,5.10
2023-01-10T12:35:43.785Z,5.10
2023-01-10T12:38:48.654Z,5.10
2023-01-10T12:41:36.032Z,5.10
2023-01-10T12:44:12.931Z,5.20
2023-01-10T12:47:05.997Z,5.10
2023-01-10T12:49:35.221Z,5.10
2023-01-10T12:52:04.040Z,5.10
2023-01-10T12:54:31.082Z,5.10
2023-01-10T12:56:58.788Z,5.10
2023-01-10T12:59:36.945Z,5.10
2023-01-10T13:02:06.032Z,5.10
2023-01-10T13:04:34.411Z,5.10
2023-01-10T13:07:01.440Z,5.10
2023-01-10T13:09:28.807Z,5.10
2023-01-10T13:12:10.840Z,5.10
2023-01-10T13:14:39.667Z,5.20
2023-01-10T13:17:09.979Z,5.20
2023-01-10T13:19:36.973Z,5.20
2023-01-10T13:22:21.042Z,5.20
2023-01-10T13:24:54.863Z,5.20
2023-01-10T13:27:22.250Z,5.20
2023-01-10T13:29:49.868Z,5.20
2023-01-10T13:32:21.528Z,5.20
2023-01-10T13:34:48.630Z,5.20
2023-01-10T13:37:21.793Z,5.20
2023-01-10T13:39:52.970Z,5.20
2023-01-10T13:42:42.658Z,5.20
2023-01-10T13:45:13.067Z,5.20
2023-01-10T13:47:40.148Z,5.20
2023-01-10T13:50:22.434Z,5.20
2023-01-10T13:53:14.755Z,5.20
2023-01-10T13:55:53.556Z,5.20
2023-01-10T13:58:42.624Z,5.20
2023-01-10T14:01:42.226Z,5.10
2023-01-10T14:04:17.760Z,5.10
2023-01-10T14:06:44.809Z,5.10
2023-01-10T14:09:11.776Z,5.10
2023-01-10T14:11:45.135Z,5.10
2023-01-10T14:14:25.640Z,5.00
2023-01-10T14:16:53.533Z,5.10
2023-01-10T14:19:24.582Z,5.10
2023-01-10T14:21:52.226Z,5.00
2023-01-10T14:24:26.323Z,5.00
2023-01-10T14:26:55.873Z,5.00
2023-01-10T14:29:24.214Z,5.00
2023-01-10T14:31:52.898Z,5.00
2023-01-10T14:34:21.461Z,5.00
2023-01-10T14:36:58.828Z,5.00
2023-01-10T14:39:26.366Z,5.00
2023-01-10T14:41:54.507Z,5.00
2023-01-10T14:44:29.669Z,5.00
2023-01-10T14:46:57.387Z,5.00
2023-01-10T14:49:28.306Z,5.00
2023-01-10T14:52:00.779Z,5.00
2023-01-10T14:54:29.331Z,5.00
2023-01-10T14:56:57.530Z,5.00
2023-01-10T14:59:31.720Z,5.10
2023-01-10T15:01:59.726Z,5.10
2023-01-10T15:04:30.741Z,5.10
2023-01-10T15:07:00.009Z,5.10
2023-01-10T15:09:27.127Z,5.10
2023-01-10T15:11:54.165Z,5.10
2023-01-10T15:14:23.396Z,5.00
2023-01-10T15:16:51.638Z,5.00
2023-01-10T15:19:19.140Z,4.90
2023-01-10T15:21:46.111Z,4.90
2023-01-10T15:24:28.916Z,4.90
2023-01-10T15:26:57.462Z,4.80
2023-01-10T15:29:24.559Z,4.80
2023-01-10T15:31:55.585Z,4.80
2023-01-10T15:34:23.169Z,4.80
2023-01-10T15:36:53.892Z,4.80
2023-01-10T15:39:25.144Z,4.80
2023-01-10T15:41:56.023Z,4.80
2023-01-10T15:44:38.386Z,4.80
2023-01-10T15:47:05.961Z,4.80
2023-01-10T15:49:33.037Z,4.70
2023-01-10T15:52:00.146Z,4.70
2023-01-10T15:54:28.160Z,4.70
2023-01-10T15:57:00.904Z,4.70
2023-01-10T15:59:28.554Z,4.70
2023-01-10T16:01:56.991Z,4.70
2023-01-10T16:04:24.113Z,4.70
2023-01-10T16:06:52.377Z,4.60
2023-01-10T16:09:20.204Z,4.60
2023-01-10T16:12:06.371Z,4.60
2023-01-10T16:14:36.643Z,4.60
2023-01-10T16:17:03.799Z,4.50
2023-01-10T16:19:30.863Z,4.50
2023-01-10T16:21:58.255Z,4.40
2023-01-10T16:24:26.099Z,4.40
2023-01-10T16:26:53.144Z,4.40
2023-01-10T16:29:20.576Z,4.30
2023-01-10T16:31:47.827Z,4.20
2023-01-10T16:34:14.925Z,4.20
2023-01-10T16:36:42.951Z,4.10
2023-01-10T16:39:14.264Z,4.10
2023-01-10T16:42:00.639Z,4.00
2023-01-10T16:44:27.713Z,4.00
2023-01-10T16:46:54.964Z,4.00
2023-01-10T16:49:22.007Z,3.90
2023-01-10T16:51:49.079Z,3.90
2023-01-10T16:54:16.562Z,3.90
2023-01-10T16:56:45.288Z,3.90
2023-01-10T16:59:12.644Z,3.80
2023-01-10T17:01:46.299Z,3.80
2023-01-10T17:04:16.056Z,3.80
2023-01-10T17:06:43.090Z,3.70
2023-01-10T17:09:28.924Z,3.70
2023-01-10T17:12:01.844Z,3.70
2023-01-10T17:14:29.551Z,3.60
2023-01-10T17:16:56.563Z,3.60
2023-01-10T17:19:24.324Z,3.60
2023-01-10T17:21:51.407Z,3.60
2023-01-10T17:24:18.453Z,3.50
2023-01-10T17:26:45.488Z,3.50
2023-01-10T17:29:12.708Z,3.50
2023-01-10T17:31:39.706Z,3.50
2023-01-10T17:34:06.986Z,3.40
2023-01-10T17:36:38.550Z,3.40
2023-01-10T17:39:06.024Z,3.40
2023-01-10T17:41:33.204Z,3.30
2023-01-10T17:44:00.221Z,3.30
2023-01-10T17:46:27.211Z,3.20
2023-01-10T17:48:54.260Z,3.20
2023-01-10T17:51:22.870Z,3.20
2023-01-10T17:53:50.034Z,3.20
2023-01-10T17:56:17.056Z,3.20
2023-01-10T17:58:44.216Z,3.20
2023-01-10T18:01:19.081Z,3.20
2023-01-10T18:03:46.212Z,3.10
2023-01-10T18:06:23.261Z,3.10
2023-01-10T18:08:50.926Z,3.10
2023-01-10T18:11:17.951Z,3.10
2023-01-10T18:13:44.985Z,3.00
2023-01-10T18:16:11.975Z,3.00
2023-01-10T18:18:39.044Z,3.00
2023-01-10T18:21:10.727Z,3.00
2023-01-10T18:23:37.704Z,2.90
2023-01-10T18:26:05.217Z,2.90
2023-01-10T18:28:40.859Z,2.90
2023-01-10T18:31:09.907Z,2.90
2023-01-10T18:33:36.911Z,2.90
2023-01-10T18:36:04.856Z,2.90
2023-01-10T18:38:32.700Z,2.90
2023-01-10T18:40:59.819Z,2.90
2023-01-10T18:43:26.805Z,2.80
2023-01-10T18:46:07.206Z,2.80
2023-01-10T18:48:34.191Z,2.80
2023-01-10T18:51:01.553Z,2.80
2023-01-10T18:53:28.685Z,2.80
2023-01-10T18:55:56.232Z,2.70
2023-01-10T18:58:25.931Z,2.70
2023-01-10T19:00:53.080Z,2.70
2023-01-10T19:03:20.180Z,2.70
2023-01-10T19:05:47.192Z,2.70
2023-01-10T19:08:14.206Z,2.60
2023-01-10T19:11:07.043Z,2.60
2023-01-10T19:13:31.844Z,2.60
2023-01-10T19:16:08.167Z,2.50
2023-01-10T19:18:35.408Z,2.50
2023-01-10T19:21:02.459Z,2.50
2023-01-10T19:23:30.351Z,2.50
2023-01-10T19:25:57.468Z,2.50
2023-01-10T19:28:24.539Z,2.40
2023-01-10T19:31:03.186Z,2.40
2023-01-10T19:33:32.888Z,2.40
2023-01-10T19:36:00.089Z,2.40
2023-01-10T19:38:27.098Z,2.30
2023-01-10T19:40:56.330Z,2.30
2023-01-10T19:43:24.834Z,2.30
2023-01-10T19:45:52.050Z,2.20
2023-01-10T19:48:19.091Z,2.20
2023-01-10T19:50:46.516Z,2.10
2023-01-10T19:53:13.589Z,2.10
2023-01-10T19:55:40.616Z,2.10
2023-01-10T19:58:07.638Z,2.00
2023-01-10T20:00:34.597Z,2.00
2023-01-10T20:03:01.716Z,2.00
2023-01-10T20:05:28.733Z,2.00
2023-01-10T20:07:55.720Z,2.00
2023-01-10T20:10:22.673Z,1.90
2023-01-10T20:12:49.710Z,1.90
2023-01-10T20:15:16.979Z,1.80
2023-01-10T20:17:44.385Z,1.80
2023-01-10T20:20:12.060Z,1.80
2023-01-10T20:22:39.079Z,1.80
2023-01-10T20:25:06.303Z,1.80
2023-01-10T20:27:33.391Z,1.70
2023-01-10T20:30:00.372Z,1.70
2023-01-10T20:32:27.458Z,1.70
2023-01-10T20:34:54.465Z,1.70
2023-01-10T20:37:23.463Z,1.60
2023-01-10T20:39:50.475Z,1.70
2023-01-10T20:42:17.448Z,1.60
2023-01-10T20:44:44.411Z,1.60
2023-01-10T20:47:11.451Z,1.60
2023-01-10T20:49:38.430Z,1.60
2023-01-10T20:52:05.402Z,1.60
2023-01-10T20:54:34.614Z,1.60
2023-01-10T20:57:01.703Z,1.60
2023-01-10T20:59:29.279Z,1.50
2023-01-10T21:01:56.550Z,1.50
2023-01-10T21:04:23.644Z,1.50
2023-01-10T21:06:50.704Z,1.50
2023-01-10T21:09:17.740Z,1.50
2023-01-10T21:11:59.910Z,1.50
2023-01-10T21:14:31.332Z,1.50
2023-01-10T21:16:58.657Z,1.50
2023-01-10T21:19:25.631Z,1.50
2023-01-10T21:21:52.597Z,1.50
2023-01-10T21:24:22.698Z,1.50
2023-01-10T21:26:49.782Z,1.50
2023-01-10T21:29:16.996Z,1.50
2023-01-10T21:31:44.256Z,1.50
2023-01-10T21:34:11.315Z,1.50
2023-01-10T21:36:38.335Z,1.60
2023-01-10T21:39:05.358Z,1.50
2023-01-10T21:41:51.068Z,1.60
2023-01-10T21:44:20.095Z,1.60
2023-01-10T21:46:49.071Z,1.60
2023-01-10T21:49:16.141Z,1.60
2023-01-10T21:51:44.274Z,1.60
2023-01-10T21:54:11.331Z,1.60
2023-01-10T21:56:38.369Z,1.70
2023-01-10T21:59:05.347Z,1.60
2023-01-10T22:01:32.330Z,1.70
2023-01-10T22:03:59.381Z,1.70
2023-01-10T22:06:26.416Z,1.70
2023-01-10T22:08:53.873Z,1.70
2023-01-10T22:11:20.880Z,1.70
2023-01-10T22:13:48.010Z,1.70
2023-01-10T22:16:15.041Z,1.70
2023-01-10T22:18:44.219Z,1.70
2023-01-10T22:21:12.438Z,1.70
2023-01-10T22:23:42.888Z,1.70
2023-01-10T22:26:12.195Z,1.70
2023-01-10T22:28:39.292Z,1.70
2023-01-10T22:31:06.460Z,1.70
2023-01-10T22:33:34.359Z,1.70
2023-01-10T22:36:08.984Z,1.70
2023-01-10T22:38:36.010Z,1.70
2023-01-10T22:41:09.714Z,1.70
2023-01-10T22:43:36.746Z,1.70
2023-01-10T22:46:04.097Z,1.70
2023-01-10T22:48:31.142Z,1.70
2023-01-10T22:50:59.397Z,1.70
2023-01-10T22:53:27.291Z,1.80
2023-01-10T22:55:54.603Z,1.80
2023-01-10T22:58:21.624Z,1.80
2023-01-10T23:00:48.818Z,1.80
2023-01-10T23:03:15.803Z,1.80
2023-01-10T23:05:42.895Z,1.80
2023-01-10T23:08:09.876Z,1.80
2023-01-10T23:10:38.393Z,1.80
2023-01-10T23:13:07.121Z,1.80
2023-01-10T23:15:34.121Z,1.80
2023-01-10T23:18:01.079Z,1.80
2023-01-10T23:20:28.100Z,1.80
2023-01-10T23:22:55.071Z,1.90
2023-01-10T23:25:22.122Z,1.90
2023-01-10T23:27:49.085Z,1.90
2023-01-10T23:30:16.202Z,2.00
2023-01-10T23:32:43.366Z,2.00
2023-01-10T23:35:10.398Z,2.00
2023-01-10T23:37:37.368Z,2.00
2023-01-10T23:40:04.606Z,2.10
2023-01-10T23:42:31.616Z,2.10
2023-01-10T23:44:58.614Z,2.10
2023-01-10T23:47:25.578Z,2.10
2023-01-10T23:49:52.553Z,2.20
2023-01-10T23:52:19.537Z,2.20
2023-01-10T23:54:46.590Z,2.20
2023-01-10T23:57:13.547Z,2.20
2023-01-10T23:59:40.528Z,2.20
